Time;durP1;ratioP1;P1;durP2;ratioP2;P2;SDS_P1;SDS_P2;PMS_P1;PMS_P2;Temp;Humidity;BMP_temperature;BMP_pressure;BME280_temperature;BME280_humidity;BME280_pressure;Samples;Min_cycle;Max_cycle;Signal;HPM_P1;HPM_P2
2022/06/14 04:32:21;;;;;;;;;4.00;3.50;;;;;17.72;50.28;101976.38;2770258;23;46504;-80
2022/06/14 04:33:39;;;;;;;;;6.00;6.00;;;;;17.70;50.42;101973.78;2409018;28;48191;-81
2022/06/14 04:35:02;;;;;;;;;7.00;5.25;;;;;17.70;50.72;101967.59;2406159;28;45371;-80
2022/06/14 04:36:22;;;;;;;;;5.00;5.00;;;;;17.71;49.82;101970.19;2406485;28;46627;-80
2022/06/14 04:37:41;;;;;;;;;5.00;5.00;;;;;17.69;50.19;101971.19;2403913;28;45334;-80
2022/06/14 04:39:03;;;;;;;;;6.25;6.00;;;;;17.68;50.07;101970.31;2413983;28;48325;-80
2022/06/14 04:40:20;;;;;;;;;6.00;4.75;;;;;17.66;49.26;101970.38;2408896;28;45344;-78
2022/06/14 04:41:52;;;;;;;;;4.25;4.25;;;;;17.62;49.49;101968.81;2406559;28;45566;-78
2022/06/14 04:43:14;;;;;;;;;6.00;4.25;;;;;17.62;50.35;101970.59;2413151;28;44690;-78
2022/06/14 04:44:53;;;;;;;;;6.25;5.50;;;;;17.64;50.11;101969.59;2403786;28;45305;-78
2022/06/14 04:46:21;;;;;;;;;4.50;4.50;;;;;17.66;49.53;101966.84;2403713;28;45259;-78
2022/06/14 04:47:41;;;;;;;;;5.00;5.00;;;;;17.68;50.10;101974.78;2403394;28;46386;-78
2022/06/14 04:49:06;;;;;;;;;4.00;4.00;;;;;17.68;49.73;101974.78;2403586;28;44675;-78
2022/06/14 04:50:26;;;;;;;;;5.00;3.50;;;;;17.68;49.89;101970.31;2403689;28;45303;-78
2022/06/14 04:51:47;;;;;;;;;6.00;4.50;;;;;17.66;49.91;101969.50;2406075;28;45236;-78
2022/06/14 04:53:12;;;;;;;;;5.25;5.25;;;;;17.66;49.47;101972.16;2406963;28;48313;-78
2022/06/14 04:54:40;;;;;;;;;3.75;3.75;;;;;17.67;49.43;101968.59;2401145;28;45462;-78
2022/06/14 04:55:55;;;;;;;;;5.00;5.00;;;;;17.64;49.92;101964.28;2412543;28;46461;-78
2022/06/14 04:57:14;;;;;;;;;4.00;4.00;;;;;17.62;49.67;101963.47;2412025;28;44803;-78
2022/06/14 04:58:42;;;;;;;;;8.75;5.00;;;;;17.62;49.46;101967.94;2412175;28;47414;-79
2022/06/14 05:00:01;;;;;;;;;7.00;4.25;;;;;17.62;49.19;101963.47;2412413;28;44702;-78
2022/06/14 05:01:25;;;;;;;;;4.25;4.25;;;;;17.64;49.85;101963.41;2412951;28;46440;-78
2022/06/14 05:02:37;;;;;;;;;4.00;3.75;;;;;17.68;49.53;101969.47;2412212;28;45271;-78
2022/06/14 05:04:00;;;;;;;;;4.00;4.00;;;;;17.72;50.62;101973.72;2409802;28;45239;-78
2022/06/14 05:05:23;;;;;;;;;5.25;5.00;;;;;17.75;50.42;101961.13;2405308;28;45164;-78
2022/06/14 05:06:41;;;;;;;;;5.25;4.75;;;;;17.76;49.82;101968.19;2404849;28;46550;-78
2022/06/14 05:08:01;;;;;;;;;4.25;4.25;;;;;17.80;49.97;101968.06;2417551;28;45443;-78
2022/06/14 05:09:21;;;;;;;;;6.00;5.00;;;;;17.83;49.87;101970.59;2410050;28;45632;-78
2022/06/14 05:10:39;;;;;;;;;4.50;4.50;;;;;17.84;49.64;101966.97;2409155;28;45454;-79
2022/06/14 05:12:13;;;;;;;;;5.00;5.00;;;;;17.82;49.50;101958.22;2409263;28;47287;-78
2022/06/14 05:13:31;;;;;;;;;6.00;5.00;;;;;17.82;49.80;101961.75;2402722;28;45357;-79
2022/06/14 05:14:57;;;;;;;;;5.50;5.00;;;;;17.83;49.90;101951.97;2406179;28;46516;-78
2022/06/14 05:16:16;;;;;;;;;5.00;5.00;;;;;17.83;49.73;101960.78;2409973;28;45470;-78
2022/06/14 05:17:37;;;;;;;;;5.75;5.75;;;;;17.86;49.75;101960.66;2404779;28;45383;-79
2022/06/14 05:18:57;;;;;;;;;7.50;5.75;;;;;17.87;50.30;101961.53;2406768;28;45157;-79
2022/06/14 05:20:14;;;;;;;;;6.00;5.50;;;;;17.89;49.74;101964.97;2402665;28;45606;-78
2022/06/14 05:21:37;;;;;;;;;5.75;4.00;;;;;17.90;50.22;101958.75;2413290;28;45398;-78
2022/06/14 05:22:52;;;;;;;;;3.50;3.50;;;;;17.93;49.88;101963.91;2412621;28;45428;-78
2022/06/14 05:24:05;;;;;;;;;5.00;4.00;;;;;17.94;50.43;101965.66;2407335;28;45545;-79
2022/06/14 05:25:16;;;;;;;;;4.00;4.00;;;;;17.95;49.52;101959.38;2408843;28;46531;-79
2022/06/14 05:26:29;;;;;;;;;4.25;4.00;;;;;17.97;49.52;101956.66;2419781;28;45398;-79
2022/06/14 05:27:47;;;;;;;;;7.00;4.50;;;;;17.96;49.22;101958.47;2414310;28;45534;-78
2022/06/14 05:29:12;;;;;;;;;4.75;3.75;;;;;17.97;49.50;101965.50;2412388;28;45201;-79
2022/06/14 05:30:39;;;;;;;;;5.25;5.25;;;;;17.94;49.36;101970.97;2407492;28;46386;-78
2022/06/14 05:32:02;;;;;;;;;3.50;3.50;;;;;17.93;49.52;101958.59;2404802;28;45529;-79
2022/06/14 05:33:21;;;;;;;;;6.00;4.50;;;;;17.95;49.64;101961.19;2406026;28;46456;-78
2022/06/14 05:34:48;;;;;;;;;4.25;4.25;;;;;17.96;49.76;101961.13;2404906;28;45482;-79
2022/06/14 05:36:10;;;;;;;;;5.50;5.25;;;;;17.97;49.17;101960.19;2408319;28;45410;-79
2022/06/14 05:37:46;;;;;;;;;6.00;6.00;;;;;17.97;49.68;101960.19;2408495;28;45555;-79
2022/06/14 05:39:06;;;;;;;;;4.75;4.75;;;;;17.99;49.59;101963.66;2406541;28;45668;-79
2022/06/14 05:40:38;;;;;;;;;6.00;5.00;;;;;18.00;48.95;101962.69;2406491;28;45153;-79
2022/06/14 05:41:57;;;;;;;;;5.00;5.00;;;;;18.00;48.84;101967.19;2402882;28;45695;-79
2022/06/14 05:43:14;;;;;;;;;6.00;5.00;;;;;17.97;49.16;101962.84;2402793;28;45276;-79
2022/06/14 05:44:38;;;;;;;;;5.50;5.00;;;;;17.99;49.51;101965.44;2403910;28;45453;-79
2022/06/14 05:45:55;;;;;;;;;5.00;5.00;;;;;17.99;49.33;101966.31;2402024;28;45499;-79
2022/06/14 05:47:16;;;;;;;;;5.75;4.00;;;;;18.04;49.23;101970.53;2400383;28;48154;-79
2022/06/14 05:48:58;;;;;;;;;5.75;5.50;;;;;18.06;49.01;101969.53;2408192;28;45494;-78
2022/06/14 05:50:16;;;;;;;;;7.25;5.75;;;;;18.08;49.17;101966.81;2402897;28;45585;-80
2022/06/14 05:51:33;;;;;;;;;3.00;3.00;;;;;18.08;48.77;101964.16;2409212;28;44695;-79
2022/06/14 05:52:52;;;;;;;;;7.00;5.75;;;;;18.10;49.60;101973.78;2402547;28;45493;-79
2022/06/14 05:54:18;;;;;;;;;6.50;5.00;;;;;18.14;49.77;101966.53;2407644;28;44855;-79
2022/06/14 05:55:38;;;;;;;;;4.50;4.50;;;;;18.19;50.55;101976.97;2406310;28;46237;-79
2022/06/14 05:56:55;;;;;;;;;4.00;4.00;;;;;18.20;49.11;101965.41;2403107;28;45201;-79
2022/06/14 05:58:21;;;;;;;;;5.50;5.25;;;;;18.22;49.52;101972.38;2405145;28;45649;-79
2022/06/14 05:59:39;;;;;;;;;5.25;5.00;;;;;18.26;49.63;101964.28;2408628;28;44792;-79
2022/06/14 06:01:22;;;;;;;;;5.00;5.00;;;;;18.30;49.00;101968.50;2405812;28;45442;-79
2022/06/14 06:02:53;;;;;;;;;6.75;6.75;;;;;18.30;48.99;101963.19;2408434;28;46310;-79
2022/06/14 06:04:04;;;;;;;;;8.00;5.00;;;;;18.30;48.99;101960.53;2407444;28;46229;-79
2022/06/14 06:05:17;;;;;;;;;6.00;6.00;;;;;18.30;48.90;101965.84;2407301;28;45229;-79
2022/06/14 06:06:37;;;;;;;;;7.50;4.75;;;;;18.33;48.77;101965.72;2411589;28;47224;-79
2022/06/14 06:07:55;;;;;;;;;5.00;5.00;;;;;18.36;48.95;101957.59;2411871;28;45308;-79
2022/06/14 06:09:13;;;;;;;;;4.00;4.00;;;;;18.40;48.68;101959.16;2403621;28;46365;-79
2022/06/14 06:10:31;;;;;;;;;6.75;4.50;;;;;18.42;48.97;101954.63;2410911;28;45474;-80
2022/06/14 06:11:51;;;;;;;;;3.00;3.00;;;;;18.43;48.71;101958.16;2405583;28;46199;-79
2022/06/14 06:13:14;;;;;;;;;4.75;4.75;;;;;18.42;48.65;101957.28;2411657;28;45311;-79
2022/06/14 06:14:35;;;;;;;;;3.00;2.75;;;;;18.46;48.51;101954.50;2405590;28;46921;-79
2022/06/14 06:15:56;;;;;;;;;5.00;5.00;;;;;18.50;48.71;101959.59;2402950;28;44626;-79
2022/06/14 06:17:17;;;;;;;;;6.50;6.00;;;;;18.53;48.59;101955.94;2402265;28;46307;-79
2022/06/14 06:18:38;;;;;;;;;5.00;5.00;;;;;18.58;48.35;101956.56;2409008;28;44719;-79
2022/06/14 06:20:09;;;;;;;;;8.25;4.25;;;;;18.61;48.79;101948.44;2419947;28;46300;-79
2022/06/14 06:21:37;;;;;;;;;5.25;5.25;;;;;18.67;48.24;101945.47;2404411;28;44711;-79
2022/06/14 06:23:06;;;;;;;;;7.00;4.25;;;;;18.72;48.82;101944.38;2407392;28;45305;-79
2022/06/14 06:24:23;;;;;;;;;6.25;5.25;;;;;18.77;48.18;101945.03;2404326;28;45293;-79
2022/06/14 06:25:40;;;;;;;;;6.00;4.50;;;;;18.81;48.46;101953.72;2406127;28;46435;-79
2022/06/14 06:27:04;;;;;;;;;7.00;6.25;;;;;18.81;47.94;101943.94;2407968;28;45342;-79
2022/06/14 06:28:28;;;;;;;;;4.75;4.00;;;;;18.82;48.37;101944.78;2407020;28;45331;-79
2022/06/14 06:29:48;;;;;;;;;5.75;5.00;;;;;18.83;48.26;101950.06;2407254;28;45546;-79
2022/06/14 06:31:03;;;;;;;;;6.75;6.00;;;;;18.87;47.96;101942.75;2409720;28;46503;-79
2022/06/14 06:32:14;;;;;;;;;5.00;4.00;;;;;18.89;47.63;101941.75;2407134;28;45375;-79
2022/06/14 06:33:29;;;;;;;;;5.25;4.00;;;;;18.89;48.01;101933.75;2406111;28;45221;-79
2022/06/14 06:34:41;;;;;;;;;7.00;6.00;;;;;18.93;47.61;101936.28;2408670;28;45395;-79
2022/06/14 06:36:28;;;;;;;;;6.00;5.50;;;;;18.97;47.89;101933.38;2406124;28;46516;-79
2022/06/14 06:38:04;;;;;;;;;6.00;5.25;;;;;18.99;47.70;101936.84;2403643;28;45146;-79
2022/06/14 06:39:17;;;;;;;;;5.00;5.00;;;;;19.03;47.38;101932.22;2403460;28;45671;-80
2022/06/14 06:40:27;;;;;;;;;3.25;3.25;;;;;19.04;48.22;101930.44;2404215;28;45232;-79
2022/06/14 06:41:49;;;;;;;;;3.50;3.50;;;;;19.08;47.99;101929.34;2403666;28;46349;-80
2022/06/14 06:43:11;;;;;;;;;8.25;5.25;;;;;19.16;48.19;101931.63;2409896;28;45502;-78
2022/06/14 06:44:36;;;;;;;;;8.00;5.00;;;;;19.19;47.83;101927.00;2402008;28;47168;-78
2022/06/14 06:45:51;;;;;;;;;4.00;3.00;;;;;19.24;48.15;101929.44;2403672;28;46139;-78
2022/06/14 06:47:14;;;;;;;;;9.00;5.50;;;;;19.30;47.89;101931.81;2408284;28;45254;-78
2022/06/14 06:48:36;;;;;;;;;9.50;7.00;;;;;19.33;47.58;101933.44;2411301;28;45284;-77
2022/06/14 06:50:01;;;;;;;;;5.50;5.00;;;;;19.39;47.43;101934.91;2406094;28;48011;-78
2022/06/14 06:51:18;;;;;;;;;7.25;5.00;;;;;19.43;47.22;101931.16;2406726;28;45184;-78
2022/06/14 06:52:55;;;;;;;;;9.00;8.00;;;;;19.45;47.19;101937.28;2404760;28;45429;-77
2022/06/14 06:54:28;;;;;;;;;5.25;5.00;;;;;19.47;47.33;101940.72;2406720;28;45248;-78
2022/06/14 06:55:50;;;;;;;;;5.75;5.00;;;;;19.50;47.29;101937.91;2401995;28;47119;-77
2022/06/14 06:57:03;;;;;;;;;4.25;4.25;;;;;19.50;47.57;101927.25;2407412;28;45501;-78
2022/06/14 06:58:23;;;;;;;;;5.50;4.75;;;;;19.56;47.75;101934.91;2402513;28;47821;-78
2022/06/14 06:59:39;;;;;;;;;4.25;4.25;;;;;19.60;47.59;101940.94;2409107;28;45501;-77
2022/06/14 07:00:54;;;;;;;;;4.50;4.50;;;;;19.63;45.85;101937.25;2405641;28;46681;-76
2022/06/14 07:02:15;;;;;;;;;7.00;6.00;;;;;19.64;45.95;101944.31;2410396;28;44951;-76
2022/06/14 07:03:45;;;;;;;;;6.25;5.50;;;;;19.64;46.46;101938.97;2410232;28;45499;-76
2022/06/14 07:05:03;;;;;;;;;10.75;6.75;;;;;19.66;46.78;101937.94;2401855;28;45292;-76
2022/06/14 07:06:38;;;;;;;;;9.50;6.25;;;;;19.71;47.17;101937.69;2396886;28;47047;-75
2022/06/14 07:08:12;;;;;;;;;6.25;5.50;;;;;19.72;46.46;101934.09;2404540;28;45230;-75
2022/06/14 07:09:28;;;;;;;;;8.00;6.00;;;;;19.73;46.42;101930.47;2420646;28;47496;-75
2022/06/14 07:10:41;;;;;;;;;4.50;4.50;;;;;19.75;46.73;101933.94;2412402;28;45543;-75
2022/06/14 07:11:57;;;;;;;;;6.50;4.00;;;;;19.76;46.36;101940.13;2402394;28;45266;-75
2022/06/14 07:13:07;;;;;;;;;8.00;6.00;;;;;19.76;45.72;101934.78;2405384;28;45227;-76
2022/06/14 07:14:23;;;;;;;;;5.25;5.00;;;;;19.76;46.38;101929.44;2411698;28;45422;-76
2022/06/14 07:16:05;;;;;;;;;7.00;5.00;;;;;19.78;46.54;101928.44;2406451;28;45510;-75
2022/06/14 07:17:18;;;;;;;;;4.50;4.50;;;;;19.82;46.48;101930.94;2404944;28;46631;-75
2022/06/14 07:18:42;;;;;;;;;7.50;5.75;;;;;19.85;46.27;101926.28;2402653;28;45444;-76
2022/06/14 07:20:11;;;;;;;;;6.00;6.00;;;;;19.90;47.12;101932.22;2402510;28;46259;-75
2022/06/14 07:21:27;;;;;;;;;4.00;3.00;;;;;19.94;46.62;101922.28;2402720;28;45314;-75
2022/06/14 07:22:43;;;;;;;;;7.00;5.75;;;;;19.98;46.68;101922.94;2405826;28;46451;-75
2022/06/14 07:24:09;;;;;;;;;6.75;5.50;;;;;19.99;46.33;101922.88;2410608;28;45361;-75
2022/06/14 07:25:34;;;;;;;;;5.50;5.50;;;;;20.00;46.26;101926.44;2403155;28;45538;-75
2022/06/14 07:26:49;;;;;;;;;5.00;5.00;;;;;20.02;45.86;101920.06;2411422;28;45275;-75
2022/06/14 07:28:06;;;;;;;;;4.25;4.25;;;;;20.06;46.16;101925.22;2410671;28;45503;-75
2022/06/14 07:29:30;;;;;;;;;6.00;4.00;;;;;20.08;45.75;101918.84;2402694;28;44619;-75
2022/06/14 07:30:52;;;;;;;;;5.00;5.00;;;;;20.11;46.13;101917.84;2402574;28;46606;-75
2022/06/14 07:32:25;;;;;;;;;5.75;4.25;;;;;20.14;45.55;101917.69;2410745;28;45360;-75
2022/06/14 07:33:37;;;;;;;;;5.00;5.00;;;;;20.14;45.85;101909.69;2411906;28;45889;-75
2022/06/14 07:34:48;;;;;;;;;5.00;4.25;;;;;20.15;45.70;101910.56;2412031;28;45229;-74
2022/06/14 07:36:06;;;;;;;;;7.75;6.50;;;;;20.19;45.81;101912.97;2410364;28;46659;-74
2022/06/14 07:37:31;;;;;;;;;6.00;5.00;;;;;20.23;45.96;101900.28;2422314;28;45201;-74
2022/06/14 07:38:52;;;;;;;;;4.75;4.75;;;;;20.28;46.45;101908.91;2413871;28;46276;-74
2022/06/14 07:40:07;;;;;;;;;3.50;3.25;;;;;20.32;46.29;101905.09;2404318;28;45286;-74
2022/06/14 07:41:41;;;;;;;;;4.00;3.00;;;;;20.37;46.15;101904.88;2408708;28;46262;-74
2022/06/14 07:43:17;;;;;;;;;4.25;4.00;;;;;20.41;46.14;101903.75;2404096;28;45288;-74
2022/06/14 07:44:31;;;;;;;;;7.25;6.00;;;;;20.45;45.25;101899.94;2400785;28;47200;-74
2022/06/14 07:45:46;;;;;;;;;4.00;4.00;;;;;20.50;45.72;101902.34;2413204;28;45315;-74
2022/06/14 07:47:03;;;;;;;;;6.00;6.00;;;;;20.53;45.20;101902.19;2411983;28;46451;-74
2022/06/14 07:48:40;;;;;;;;;4.50;4.50;;;;;20.57;45.79;101895.69;2412137;28;45380;-74
2022/06/14 07:50:04;;;;;;;;;6.00;5.00;;;;;20.60;45.46;101894.66;2413182;28;45536;-74
2022/06/14 07:51:24;;;;;;;;;5.25;5.25;;;;;20.65;44.53;101897.94;2412772;28;45368;-74
2022/06/14 07:52:37;;;;;;;;;5.50;5.50;;;;;20.67;44.49;101893.34;2409365;28;45307;-74
2022/06/14 07:54:05;;;;;;;;;4.00;4.00;;;;;20.71;44.83;101893.19;2409934;28;45563;-74
2022/06/14 07:55:24;;;;;;;;;4.00;2.00;;;;;20.72;44.14;101894.94;2403781;28;45655;-74
2022/06/14 07:56:47;;;;;;;;;0.75;0.00;;;;;20.72;43.93;101889.59;2404399;28;45308;-74
2022/06/14 07:58:03;;;;;;;;;6.25;5.00;;;;;20.75;44.97;101889.38;2417293;28;48352;-74
2022/06/14 07:59:22;;;;;;;;;4.25;3.25;;;;;20.77;44.30;101885.66;2403388;28;45214;-74
2022/06/14 08:02:30;;;;;;;;;3.50;3.50;;;;;20.88;44.44;101892.19;2403714;28;44714;-74
2022/06/14 08:03:47;;;;;;;;;3.00;3.00;;;;;20.92;44.73;101897.28;2403060;28;46205;-74
2022/06/14 08:05:07;;;;;;;;;4.00;4.00;;;;;20.96;44.50;101894.44;2403496;28;45265;-74
2022/06/14 08:06:24;;;;;;;;;4.75;4.75;;;;;20.98;44.07;101893.38;2403925;28;45548;-74
2022/06/14 08:07:35;;;;;;;;;5.25;4.00;;;;;21.00;43.54;101893.28;2412017;28;45201;-74
2022/06/14 08:08:47;;;;;;;;;6.00;4.25;;;;;21.02;43.79;101891.41;2410589;28;46195;-74
2022/06/14 08:10:13;;;;;;;;;3.50;3.50;;;;;21.04;43.25;101877.97;2403302;28;45211;-74
2022/06/14 08:11:51;;;;;;;;;5.00;3.00;;;;;21.09;44.18;101874.06;2403653;28;45400;-74
2022/06/14 08:13:07;;;;;;;;;8.00;6.50;;;;;21.12;44.22;101876.56;2404045;28;44607;-74
2022/06/14 08:14:38;;;;;;;;;5.25;4.25;;;;;21.16;44.37;101873.69;2403151;28;47433;-74
2022/06/14 08:15:53;;;;;;;;;3.50;3.50;;;;;21.20;44.63;101872.56;2412356;28;45260;-74
2022/06/14 08:17:08;;;;;;;;;5.00;4.00;;;;;21.23;44.42;101872.38;2417888;28;46203;-74
2022/06/14 08:18:41;;;;;;;;;4.00;4.00;;;;;21.28;44.30;101872.97;2408130;28;45271;-74
2022/06/14 08:20:00;;;;;;;;;4.50;4.50;;;;;21.32;44.14;101871.81;2413181;28;46163;-74
2022/06/14 08:21:27;;;;;;;;;5.00;4.00;;;;;21.35;44.25;101868.94;2413374;28;44646;-74
2022/06/14 08:22:43;;;;;;;;;4.00;4.00;;;;;21.40;43.85;101866.00;2412320;28;48095;-74
2022/06/14 08:24:01;;;;;;;;;6.00;5.00;;;;;21.44;43.92;101867.50;2412915;28;45277;-74
2022/06/14 08:25:20;;;;;;;;;6.00;4.00;;;;;21.47;44.08;101866.47;2413247;28;46407;-74
2022/06/14 08:26:39;;;;;;;;;4.25;4.25;;;;;21.49;42.79;101864.56;2413478;28;45300;-74
2022/06/14 08:27:58;;;;;;;;;3.75;3.75;;;;;21.52;43.93;101863.50;2412985;28;46470;-74
2022/06/14 08:29:16;;;;;;;;;4.75;4.75;;;;;21.54;43.42;101862.47;2412798;28;45228;-75
2022/06/14 08:30:32;;;;;;;;;3.75;3.75;;;;;21.58;42.94;101863.13;2406524;28;47254;-74
2022/06/14 08:31:50;;;;;;;;;4.25;4.00;;;;;21.61;42.75;101859.41;2404476;28;45333;-74
2022/06/14 08:33:16;;;;;;;;;3.75;3.50;;;;;21.63;42.98;101865.53;2406248;28;46573;-74
2022/06/14 08:34:47;;;;;;;;;5.00;5.00;;;;;21.64;42.73;101853.84;2403978;28;45256;-74
2022/06/14 08:36:06;;;;;;;;;5.25;4.50;;;;;21.65;42.75;101867.16;2403268;28;47510;-74
2022/06/14 08:37:19;;;;;;;;;5.50;4.50;;;;;21.68;42.94;101858.06;2403674;28;45217;-74
2022/06/14 08:38:36;;;;;;;;;5.00;5.00;;;;;21.69;40.73;101857.97;2402482;28;45750;-74
2022/06/14 08:39:53;;;;;;;;;3.75;3.75;;;;;21.70;42.47;101858.84;2402768;28;44701;-74
2022/06/14 08:41:31;;;;;;;;;4.00;4.00;;;;;21.74;42.90;101862.16;2406728;28;45669;-74
2022/06/14 08:43:08;;;;;;;;;34.25;29.75;;;;;21.77;43.27;101857.47;2407540;28;45160;-74
2022/06/14 08:44:27;;;;;;;;;7.00;6.00;;;;;21.80;42.77;101851.09;2407642;28;45212;-74
2022/06/14 08:45:46;;;;;;;;;7.25;6.25;;;;;21.85;43.12;101856.13;2404864;28;45459;-74
2022/06/14 08:47:02;;;;;;;;;4.75;4.25;;;;;21.89;42.64;101852.34;2403035;28;45447;-74
2022/06/14 08:48:38;;;;;;;;;6.75;5.00;;;;;21.93;42.65;101848.50;2412486;28;45365;-74
2022/06/14 08:50:09;;;;;;;;;5.75;5.25;;;;;21.97;42.77;101850.03;2416232;28;46598;-74
2022/06/14 08:51:42;;;;;;;;;5.00;5.00;;;;;22.00;42.34;101847.13;2405554;28;45320;-74
2022/06/14 08:53:04;;;;;;;;;5.00;5.00;;;;;22.03;41.53;101843.41;2402778;28;47025;-74
2022/06/14 08:54:50;;;;;;;;;5.75;5.25;;;;;22.05;41.06;101840.66;2406502;28;45269;-75
2022/06/14 08:56:19;;;;;;;;;5.00;5.00;;;;;22.08;42.25;101849.31;2411677;28;46449;-75
2022/06/14 08:57:45;;;;;;;;;4.00;4.00;;;;;22.10;41.77;101844.72;2413158;28;44761;-75
2022/06/14 08:59:04;;;;;;;;;5.00;5.00;;;;;22.12;41.16;101845.50;2403526;28;45663;-75
2022/06/14 09:00:29;;;;;;;;;7.00;5.25;;;;;22.15;40.47;101847.09;2411470;28;45387;-75
2022/06/14 09:01:48;;;;;;;;;5.50;5.00;;;;;22.17;41.01;101844.34;2407721;28;45493;-75
2022/06/14 09:03:11;;;;;;;;;4.25;4.25;;;;;22.22;40.70;101843.09;2404738;28;45434;-74
2022/06/14 09:05:01;;;;;;;;;5.00;5.00;;;;;22.26;40.59;101841.91;2412237;28;47237;-74
2022/06/14 09:06:44;;;;;;;;;7.00;5.00;;;;;22.29;41.01;101845.34;2402719;28;45245;-74
2022/06/14 09:08:29;;;;;;;;;5.75;5.50;;;;;22.32;40.37;101847.84;2410028;28;46527;-74
2022/06/14 09:10:08;;;;;;;;;3.75;3.75;;;;;22.35;41.05;101853.84;2408866;28;45617;-74
2022/06/14 09:11:18;;;;;;;;;4.75;4.75;;;;;22.36;41.57;101852.88;2412753;28;46374;-74
2022/06/14 09:12:38;;;;;;;;;4.00;4.00;;;;;22.37;41.57;101846.53;2413199;28;45210;-74
2022/06/14 09:14:09;;;;;;;;;5.00;5.00;;;;;22.38;41.03;101844.72;2411939;28;47157;-74
2022/06/14 09:15:37;;;;;;;;;5.00;5.00;;;;;22.41;40.96;101846.34;2406563;28;45322;-74
2022/06/14 09:17:02;;;;;;;;;5.00;4.50;;;;;22.42;41.38;101846.25;2403128;28;45585;-74
2022/06/14 09:18:24;;;;;;;;;4.25;4.25;;;;;22.43;41.34;101850.66;2405986;28;45264;-74
2022/06/14 09:20:02;;;;;;;;;5.00;5.00;;;;;22.44;41.35;101847.03;2410822;28;45727;-74
2022/06/14 09:21:47;;;;;;;;;6.00;6.00;;;;;22.46;40.67;101855.81;2403064;28;45380;-74
2022/06/14 09:23:09;;;;;;;;;5.50;5.50;;;;;22.47;41.35;101852.16;2403248;28;45719;-74
2022/06/14 09:24:32;;;;;;;;;5.00;3.75;;;;;22.49;40.98;101849.38;2402973;28;45570;-74
2022/06/14 09:26:14;;;;;;;;;4.75;4.75;;;;;22.49;40.41;101842.19;2402973;28;46581;-74
2022/06/14 09:27:42;;;;;;;;;5.00;5.00;;;;;22.53;41.31;101840.19;2406187;28;45579;-74
2022/06/14 09:29:31;;;;;;;;;4.00;4.00;;;;;22.55;41.04;101837.38;2411924;28;46657;-74
2022/06/14 09:30:57;;;;;;;;;6.25;5.00;;;;;22.55;39.74;101843.59;2405549;28;45217;-74
2022/06/14 09:34:38;;;;;;;;;5.75;5.75;;;;;22.60;40.68;101845.97;2406011;28;45292;-74
2022/06/14 09:36:10;;;;;;;;;5.00;3.75;;;;;22.61;40.97;101845.03;2411117;28;45438;-74
2022/06/14 09:37:39;;;;;;;;;5.50;5.00;;;;;22.61;40.49;101839.66;2409912;28;45383;-74
2022/06/14 09:39:07;;;;;;;;;4.25;4.25;;;;;22.62;40.86;101840.53;2409187;28;46544;-74
2022/06/14 09:40:33;;;;;;;;;5.00;4.00;;;;;22.63;40.42;101836.88;2406044;28;44824;-74
2022/06/14 09:42:28;;;;;;;;;5.50;4.50;;;;;22.65;40.13;101833.13;2411542;28;46634;-74
2022/06/14 09:43:54;;;;;;;;;4.25;4.25;;;;;22.67;39.80;101836.56;2412770;28;45185;-74
2022/06/14 09:45:22;;;;;;;;;4.50;3.00;;;;;22.70;40.37;101835.53;2412650;28;45968;-74
2022/06/14 09:47:01;;;;;;;;;5.00;4.25;;;;;22.73;39.94;101826.44;2410382;28;44675;-75
2022/06/14 09:48:32;;;;;;;;;3.50;3.50;;;;;22.76;39.99;101832.44;2401085;28;47959;-74
2022/06/14 09:50:04;;;;;;;;;4.00;4.00;;;;;22.79;39.88;101829.53;2403127;28;45356;-74
2022/06/14 09:51:29;;;;;;;;;5.50;5.50;;;;;22.82;39.66;101833.84;2402273;28;47962;-74
2022/06/14 09:53:11;;;;;;;;;5.75;5.75;;;;;22.86;40.02;101834.50;2404745;28;45342;-75
2022/06/14 09:54:56;;;;;;;;;6.00;4.75;;;;;22.90;39.75;101833.31;2412622;28;47250;-74
2022/06/14 09:56:36;;;;;;;;;4.50;4.50;;;;;22.92;39.47;101834.91;2402360;28;45312;-74
2022/06/14 09:58:33;;;;;;;;;5.00;5.00;;;;;22.93;39.37;101830.44;2402386;28;45299;-75
2022/06/14 09:59:46;;;;;;;;;5.00;5.00;;;;;22.96;40.46;101829.34;2402726;28;45333;-76
2022/06/14 10:01:29;;;;;;;;;5.75;5.00;;;;;22.97;40.42;101836.41;2402881;28;45218;-76
2022/06/14 10:03:00;;;;;;;;;6.50;6.00;;;;;22.97;40.61;101825.69;2402596;28;45554;-76
2022/06/14 10:04:44;;;;;;;;;6.00;4.25;;;;;22.99;39.70;101829.16;2407079;28;46539;-76
2022/06/14 10:06:05;;;;;;;;;4.50;4.50;;;;;23.00;40.61;101831.72;2407300;28;45424;-76
2022/06/14 10:07:46;;;;;;;;;4.75;4.75;;;;;23.00;39.58;101828.19;2404312;28;45577;-75
2022/06/14 10:08:59;;;;;;;;;5.00;4.25;;;;;22.99;38.21;101821.13;2377274;28;44683;-75
2022/06/14 10:10:19;;;;;;;;;5.75;5.75;;;;;22.99;38.49;101821.13;2403571;28;45986;-75
2022/06/14 10:11:35;;;;;;;;;4.25;4.25;;;;;23.00;39.80;101814.78;2412738;28;45158;-75
2022/06/14 10:13:05;;;;;;;;;5.00;5.00;;;;;23.02;39.25;101826.25;2406536;28;46806;-75
2022/06/14 10:14:36;;;;;;;;;6.25;5.75;;;;;23.04;38.90;101827.00;2392507;28;45281;-76
2022/06/14 10:15:47;;;;;;;;;5.25;4.50;;;;;23.06;40.02;101825.09;2402925;28;46205;-75
2022/06/14 10:17:26;;;;;;;;;5.50;4.00;;;;;23.08;38.67;101819.59;2407529;28;45426;-75
2022/06/14 10:18:52;;;;;;;;;6.00;5.00;;;;;23.08;38.54;101820.47;2384011;28;46285;-75
2022/06/14 10:20:26;;;;;;;;;4.50;4.50;;;;;23.07;37.78;101816.06;2390964;28;45304;-75
2022/06/14 10:21:47;;;;;;;;;4.00;3.25;;;;;23.07;38.78;101821.41;2406425;28;45296;-75
2022/06/14 10:23:36;;;;;;;;;7.50;5.75;;;;;23.12;39.37;101819.28;2405828;28;45469;-73
2022/06/14 10:24:49;;;;;;;;;5.00;4.50;;;;;23.15;39.26;101824.44;2405650;28;46489;-74
2022/06/14 10:29:07;;;;;;;;;4.00;4.00;;;;;23.20;38.38;101813.38;2405163;28;45269;-73
2022/06/14 10:30:34;;;;;;;;;5.50;5.50;;;;;23.20;38.59;101809.84;2411790;28;46312;-73
2022/06/14 10:32:14;;;;;;;;;5.25;4.50;;;;;23.24;38.90;101811.31;2409664;28;45519;-73
2022/06/14 10:33:30;;;;;;;;;8.00;5.75;;;;;23.26;38.91;101815.63;2411392;28;47327;-73
2022/06/14 10:34:49;;;;;;;;;0.00;0.00;;;;;23.31;39.19;101812.59;2408968;28;44706;-73
2022/06/14 10:36:05;;;;;;;;;5.25;4.25;;;;;23.33;38.27;101810.69;2404186;28;46344;-73
2022/06/14 10:37:25;;;;;;;;;6.75;6.00;;;;;23.34;38.60;101812.41;2407112;28;44839;-74
2022/06/14 10:39:01;;;;;;;;;5.00;5.00;;;;;23.38;37.91;101808.53;2402164;28;45684;-74
2022/06/14 10:40:27;;;;;;;;;5.00;5.00;;;;;23.41;38.06;101803.94;2404513;28;45434;-74
2022/06/14 10:41:41;;;;;;;;;5.50;4.50;;;;;23.45;39.12;101808.09;2401796;28;48110;-74
2022/06/14 10:43:12;;;;;;;;;6.50;6.50;;;;;23.46;38.12;101805.31;2404634;28;44676;-73
2022/06/14 10:44:56;;;;;;;;;6.00;6.00;;;;;23.50;38.49;101803.31;2402296;28;46685;-73
2022/06/14 10:46:14;;;;;;;;;6.75;5.00;;;;;23.52;38.42;101798.69;2408564;28;45406;-74
2022/06/14 10:47:39;;;;;;;;;5.50;5.50;;;;;23.55;39.18;101797.59;2399416;28;46955;-73
2022/06/14 10:49:14;;;;;;;;;4.75;4.00;;;;;23.55;39.21;101790.41;2392487;28;44860;-73
2022/06/14 10:50:49;;;;;;;;;8.75;7.00;;;;;23.57;38.38;101782.25;2407144;28;45296;-73
2022/06/14 10:52:16;;;;;;;;;5.00;2.00;;;;;23.57;38.65;101780.44;2402795;28;44738;-74
2022/06/14 10:53:35;;;;;;;;;7.00;5.00;;;;;23.58;37.27;101787.50;2402158;28;45468;-74
2022/06/14 10:55:16;;;;;;;;;5.75;5.25;;;;;23.61;38.79;101791.78;2403666;28;45241;-74
2022/06/14 10:56:26;;;;;;;;;5.25;4.25;;;;;23.64;38.06;101788.00;2411125;28;47380;-73
2022/06/14 10:57:51;;;;;;;;;7.50;5.00;;;;;23.66;38.52;101778.88;2404548;28;45219;-73
2022/06/14 10:59:11;;;;;;;;;5.50;5.50;;;;;23.67;38.85;101775.25;2411408;28;45499;-73
2022/06/14 11:00:31;;;;;;;;;8.00;6.00;;;;;23.66;38.14;101772.66;2408240;28;45406;-74
2022/06/14 11:02:00;;;;;;;;;5.25;5.25;;;;;23.64;37.16;101780.81;2411308;28;46331;-74
2022/06/14 11:03:31;;;;;;;;;4.25;4.25;;;;;23.66;37.32;101783.38;2411372;28;44889;-74
2022/06/14 11:04:56;;;;;;;;;6.75;5.25;;;;;23.67;38.54;101777.06;2410873;28;45577;-74
2022/06/14 11:06:31;;;;;;;;;5.50;5.50;;;;;23.68;38.58;101766.22;2402792;28;45263;-74
2022/06/14 11:08:09;;;;;;;;;7.50;4.25;;;;;23.70;38.34;101763.44;2403015;28;46680;-74
2022/06/14 11:09:40;;;;;;;;;8.00;7.75;;;;;23.73;37.55;101767.72;2411485;28;45173;-74